Time;durP1;ratioP1;P1;durP2;ratioP2;P2;SDS_P1;SDS_P2;PMS_P1;PMS_P2;Temp;Humidity;BMP_temperature;BMP_pressure;BME280_temperature;BME280_humidity;BME280_pressure;Samples;Min_cycle;Max_cycle;Signal;HPM_P1;HPM_P2
2022/09/29 00:01:03;;;;;;;0.10;0.10;;;7.10;99.90;;;;;;5043076;28;20041;-81
2022/09/29 00:03:30;;;;;;;0.10;0.10;;;7.10;99.90;;;;;;5043559;28;20052;-79
2022/09/29 00:05:59;;;;;;;0.10;0.10;;;7.10;99.90;;;;;;5043353;28;20052;-82
2022/09/29 00:08:29;;;;;;;0.10;0.10;;;7.20;99.90;;;;;;5039511;28;20041;-83
2022/09/29 00:10:56;;;;;;;0.10;0.10;;;7.20;99.90;;;;;;5048779;28;20095;-82
2022/09/29 00:13:23;;;;;;;0.10;0.10;;;7.20;99.90;;;;;;5047573;28;20040;-81
2022/09/29 00:15:58;;;;;;;0.10;0.10;;;7.20;99.90;;;;;;5042720;28;20084;-81
2022/09/29 00:18:25;;;;;;;0.10;0.10;;;7.10;99.90;;;;;;5047274;28;20509;-84
2022/09/29 00:20:59;;;;;;;0.10;0.10;;;7.10;99.90;;;;;;5042054;28;20029;-83
2022/09/29 00:23:27;;;;;;;0.10;0.10;;;7.20;99.90;;;;;;5036784;28;20045;-81
2022/09/29 00:26:02;;;;;;;0.10;0.10;;;7.20;99.90;;;;;;5043448;28;20052;-79
2022/09/29 00:28:29;;;;;;;0.10;0.10;;;7.20;99.90;;;;;;5043371;28;20051;-81
2022/09/29 00:30:58;;;;;;;0.10;0.10;;;7.20;99.90;;;;;;5050243;28;20495;-83
2022/09/29 00:33:25;;;;;;;0.10;0.10;;;7.20;99.90;;;;;;5048748;28;20049;-81
2022/09/29 00:35:57;;;;;;;0.10;0.10;;;7.30;99.90;;;;;;5043997;28;20055;-85
2022/09/29 00:38:27;;;;;;;0.10;0.10;;;7.50;99.90;;;;;;5039220;28;20133;-85
2022/09/29 00:40:54;;;;;;;0.10;0.10;;;7.60;99.90;;;;;;5043486;28;20080;-83
2022/09/29 00:43:23;;;;;;;0.10;0.10;;;7.60;99.90;;;;;;5027451;28;20058;-85
2022/09/29 00:45:53;;;;;;;0.10;0.10;;;7.70;99.90;;;;;;5041155;28;20045;-84
2022/09/29 00:48:28;;;;;;;0.10;0.10;;;7.80;99.90;;;;;;5045153;28;20497;-82
2022/09/29 00:50:55;;;;;;;0.10;0.10;;;7.90;99.90;;;;;;5050005;28;20058;-79
2022/09/29 00:53:25;;;;;;;0.10;0.10;;;7.90;99.90;;;;;;5057849;28;20498;-81
2022/09/29 00:55:58;;;;;;;0.10;0.10;;;8.00;99.90;;;;;;5038337;28;20046;-80
2022/09/29 00:58:30;;;;;;;0.10;0.10;;;8.00;99.90;;;;;;5035740;28;20045;-82
2022/09/29 01:00:58;;;;;;;0.10;0.10;;;8.00;99.90;;;;;;5038069;28;20116;-81
2022/09/29 01:03:27;;;;;;;0.10;0.10;;;8.10;99.90;;;;;;5041498;28;20056;-83
2022/09/29 01:05:58;;;;;;;0.10;0.10;;;8.20;99.90;;;;;;5044863;28;20051;-81
2022/09/29 01:08:32;;;;;;;0.00;0.00;;;8.20;99.90;;;;;;5042167;28;20049;-82
2022/09/29 01:11:01;;;;;;;0.10;0.10;;;8.30;99.90;;;;;;5041583;28;20123;-81
2022/09/29 01:13:29;;;;;;;0.10;0.10;;;8.30;99.90;;;;;;5043418;28;20124;-83
2022/09/29 01:15:55;;;;;;;0.10;0.10;;;8.30;99.90;;;;;;5038248;28;20127;-80
2022/09/29 01:18:23;;;;;;;0.10;0.10;;;8.20;99.90;;;;;;5041786;28;20095;-80
2022/09/29 01:20:55;;;;;;;0.10;0.10;;;8.20;99.90;;;;;;5039904;28;20063;-83
2022/09/29 01:24:14;;;;;;;0.10;0.10;;;8.20;99.90;;;;;;5046010;28;20406;-80
2022/09/29 01:26:59;;;;;;;0.10;0.10;;;8.20;99.90;;;;;;5039391;28;20041;-82
2022/09/29 01:29:56;;;;;;;0.10;0.10;;;8.10;99.90;;;;;;5047620;28;20055;-82
2022/09/29 01:32:33;;;;;;;0.10;0.10;;;8.10;99.90;;;;;;5028185;28;20442;-82
2022/09/29 01:35:08;;;;;;;0.10;0.10;;;8.10;99.90;;;;;;5041323;28;20040;-84
2022/09/29 01:37:50;;;;;;;0.10;0.10;;;8.00;99.90;;;;;;5051087;28;20049;-79
2022/09/29 01:40:24;;;;;;;0.10;0.10;;;8.00;99.90;;;;;;5045672;28;20033;-81
2022/09/29 01:42:57;;;;;;;0.10;0.10;;;7.80;99.90;;;;;;5046947;28;20094;-81
2022/09/29 01:45:31;;;;;;;0.10;0.10;;;7.80;99.90;;;;;;5046922;28;20049;-80
2022/09/29 01:48:04;;;;;;;0.10;0.10;;;7.60;99.90;;;;;;5046787;28;20036;-82
2022/09/29 01:50:37;;;;;;;0.10;0.10;;;7.80;99.90;;;;;;5048499;28;20037;-84
2022/09/29 01:53:10;;;;;;;0.10;0.10;;;7.70;99.90;;;;;;5041415;28;20052;-80
2022/09/29 01:55:42;;;;;;;0.10;0.10;;;7.70;99.90;;;;;;5038929;28;20397;-79
2022/09/29 01:58:13;;;;;;;0.00;0.00;;;7.70;99.90;;;;;;5046102;28;20477;-81
2022/09/29 02:00:46;;;;;;;0.10;0.10;;;7.70;99.90;;;;;;5057010;28;20047;-80
2022/09/29 02:03:17;;;;;;;0.10;0.10;;;7.70;99.90;;;;;;5046041;28;20084;-82
2022/09/29 02:05:47;;;;;;;0.10;0.10;;;7.70;99.90;;;;;;5048187;28;20049;-82
2022/09/29 02:08:18;;;;;;;0.10;0.10;;;7.70;99.90;;;;;;5045866;28;20045;-83
2022/09/29 02:10:50;;;;;;;0.10;0.10;;;7.70;99.90;;;;;;5047695;28;20069;-84
2022/09/29 02:13:18;;;;;;;0.10;0.10;;;7.70;99.90;;;;;;5047146;28;20076;-83
2022/09/29 02:15:48;;;;;;;0.10;0.10;;;7.70;99.90;;;;;;5042493;28;20053;-81
2022/09/29 02:18:20;;;;;;;0.10;0.10;;;7.60;99.90;;;;;;5048547;28;20040;-81
2022/09/29 02:20:48;;;;;;;0.10;0.10;;;7.50;99.90;;;;;;5043444;28;20045;-86
2022/09/29 02:23:16;;;;;;;0.10;0.10;;;7.50;99.90;;;;;;5044823;28;20037;-82
2022/09/29 02:25:44;;;;;;;0.05;0.05;;;7.60;99.90;;;;;;5050979;28;20037;-80
2022/09/29 02:28:12;;;;;;;0.10;0.10;;;7.60;99.90;;;;;;5051348;28;20037;-81
2022/09/29 02:30:39;;;;;;;0.10;0.10;;;7.60;99.90;;;;;;5038731;28;20047;-82
2022/09/29 02:33:16;;;;;;;0.08;0.08;;;7.60;99.90;;;;;;5039732;28;20051;-81
2022/09/29 02:35:53;;;;;;;0.10;0.10;;;7.70;99.90;;;;;;5043698;28;20571;-81
2022/09/29 02:38:29;;;;;;;0.10;0.10;;;7.70;99.90;;;;;;5041961;28;20037;-82
2022/09/29 02:41:04;;;;;;;0.10;0.10;;;7.80;99.90;;;;;;5047508;28;20523;-79
2022/09/29 02:43:45;;;;;;;0.10;0.10;;;7.80;99.90;;;;;;5050623;28;20068;-81
2022/09/29 02:46:27;;;;;;;0.10;0.10;;;7.80;99.90;;;;;;5047190;28;20057;-83
2022/09/29 02:49:14;;;;;;;0.05;0.05;;;7.90;99.90;;;;;;5046611;28;20485;-81
2022/09/29 02:51:46;;;;;;;0.10;0.10;;;7.90;99.90;;;;;;5043156;28;20044;-82
2022/09/29 02:54:25;;;;;;;0.00;0.00;;;7.90;99.90;;;;;;5047614;28;20489;-80
2022/09/29 02:57:02;;;;;;;0.10;0.10;;;7.90;99.90;;;;;;5048655;28;20049;-80
2022/09/29 02:59:34;;;;;;;0.10;0.10;;;8.00;99.90;;;;;;5048229;28;20408;-85
2022/09/29 03:02:01;;;;;;;0.10;0.10;;;8.00;99.90;;;;;;5042934;28;20076;-83
2022/09/29 03:04:29;;;;;;;0.10;0.10;;;8.00;99.90;;;;;;5026527;28;20911;-83
2022/09/29 03:06:57;;;;;;;0.10;0.10;;;8.00;99.90;;;;;;5050464;28;20118;-81
2022/09/29 03:09:24;;;;;;;0.10;0.10;;;8.00;99.90;;;;;;5054173;28;20049;-86
2022/09/29 03:11:51;;;;;;;0.10;0.10;;;8.10;99.90;;;;;;5044697;28;20033;-84
2022/09/29 03:14:18;;;;;;;0.10;0.10;;;;;;;;;;5041897;28;20164;-83
2022/09/29 03:16:46;;;;;;;0.10;0.10;;;8.10;99.90;;;;;;5038102;28;20099;-85
2022/09/29 03:19:13;;;;;;;0.10;0.10;;;8.10;99.90;;;;;;5044262;28;20073;-81
2022/09/29 03:21:39;;;;;;;0.10;0.10;;;8.00;99.90;;;;;;5040912;28;20081;-82
2022/09/29 03:24:08;;;;;;;0.10;0.10;;;8.00;99.90;;;;;;5054649;28;20080;-84
2022/09/29 03:26:35;;;;;;;0.10;0.10;;;8.00;99.90;;;;;;5057469;28;20040;-80
2022/09/29 03:29:01;;;;;;;0.03;0.03;;;8.00;99.90;;;;;;5038969;28;20043;-82
2022/09/29 03:31:28;;;;;;;0.10;0.10;;;8.00;99.90;;;;;;5044056;28;20033;-81
2022/09/29 03:33:56;;;;;;;0.10;0.10;;;7.90;99.90;;;;;;5046134;28;20194;-83
2022/09/29 03:36:22;;;;;;;0.00;0.00;;;8.00;99.90;;;;;;5036842;28;20379;-82
2022/09/29 03:38:49;;;;;;;0.10;0.10;;;8.00;99.90;;;;;;5045205;28;20420;-81
2022/09/29 03:41:17;;;;;;;0.05;0.05;;;8.00;99.90;;;;;;5042235;28;20051;-80
2022/09/29 03:43:45;;;;;;;0.10;0.10;;;7.90;99.90;;;;;;5045047;28;20106;-80
2022/09/29 03:51:18;;;;;;;0.10;0.10;;;8.00;99.90;;;;;;5020430;28;20065;-85
2022/09/29 03:53:44;;;;;;;0.00;0.00;;;8.00;99.90;;;;;;5006677;28;20072;-84
2022/09/29 03:56:11;;;;;;;0.10;0.10;;;8.10;99.90;;;;;;5009390;28;20041;-83
2022/09/29 03:58:39;;;;;;;0.10;0.10;;;8.10;99.90;;;;;;5006110;28;20069;-84
2022/09/29 04:01:06;;;;;;;0.10;0.10;;;8.10;99.90;;;;;;5024983;28;20103;-82
2022/09/29 04:03:33;;;;;;;0.10;0.10;;;8.10;99.90;;;;;;5020463;28;20139;-85
2022/09/29 04:06:00;;;;;;;0.10;0.10;;;8.20;99.90;;;;;;5016413;28;20435;-84
2022/09/29 04:08:27;;;;;;;0.10;0.10;;;8.20;99.90;;;;;;5009035;28;20077;-84
2022/09/29 04:10:54;;;;;;;0.10;0.10;;;;;;;;;;5021656;28;20041;-84
2022/09/29 04:13:21;;;;;;;0.10;0.10;;;;;;;;;;5020111;28;20413;-84
2022/09/29 04:15:49;;;;;;;0.10;0.10;;;8.20;99.90;;;;;;5021010;28;20049;-84
2022/09/29 04:18:16;;;;;;;0.10;0.10;;;8.20;99.90;;;;;;5018387;28;20061;-84
2022/09/29 04:20:43;;;;;;;0.10;0.10;;;;;;;;;;5004363;28;20143;-85
2022/09/29 04:23:11;;;;;;;0.03;0.03;;;8.30;99.90;;;;;;5016280;28;20673;-84
2022/09/29 04:25:38;;;;;;;0.10;0.10;;;8.20;99.90;;;;;;5021715;28;20382;-84
2022/09/29 04:28:06;;;;;;;0.10;0.10;;;8.10;99.90;;;;;;4999549;28;20049;-83
2022/09/29 04:30:33;;;;;;;0.10;0.10;;;8.10;99.90;;;;;;5021473;28;20050;-85
2022/09/29 04:33:01;;;;;;;0.10;0.10;;;8.10;99.90;;;;;;5013021;28;20052;-85
2022/09/29 04:35:28;;;;;;;0.10;0.10;;;;;;;;;;5007212;28;20050;-84
2022/09/29 04:38:01;;;;;;;0.10;0.10;;;8.00;99.90;;;;;;5019941;28;21297;-84
2022/09/29 04:40:28;;;;;;;0.10;0.10;;;7.90;99.90;;;;;;5019045;28;20485;-84
2022/09/29 04:42:55;;;;;;;0.10;0.10;;;;;;;;;;5020809;28;20088;-84
2022/09/29 04:45:22;;;;;;;0.00;0.00;;;7.90;99.90;;;;;;5016435;28;20057;-84
2022/09/29 04:47:49;;;;;;;0.10;0.10;;;7.80;99.90;;;;;;4999110;28;20037;-85
2022/09/29 04:50:17;;;;;;;0.10;0.10;;;7.80;99.90;;;;;;5022102;28;20706;-84
2022/09/29 04:52:44;;;;;;;0.00;0.00;;;7.80;99.90;;;;;;4998618;28;20061;-85
2022/09/29 04:55:11;;;;;;;0.10;0.10;;;7.70;99.90;;;;;;5002597;28;20049;-84
2022/09/29 04:57:39;;;;;;;0.10;0.10;;;7.70;99.90;;;;;;5023435;28;20091;-84
2022/09/29 05:00:08;;;;;;;0.10;0.10;;;7.60;99.90;;;;;;5021792;28;20080;-83
2022/09/29 05:02:36;;;;;;;0.10;0.10;;;7.60;99.90;;;;;;5014791;28;20071;-82
2022/09/29 05:05:07;;;;;;;0.10;0.10;;;7.60;99.90;;;;;;5029062;28;20072;-84
2022/09/29 05:07:36;;;;;;;0.10;0.10;;;7.50;99.90;;;;;;5013306;28;20059;-83
2022/09/29 05:10:04;;;;;;;0.10;0.10;;;7.50;99.90;;;;;;5005555;28;20255;-84
2022/09/29 05:12:31;;;;;;;0.10;0.10;;;7.50;99.90;;;;;;5004543;28;20501;-84
2022/09/29 05:14:58;;;;;;;0.10;0.10;;;9.70;99.90;;;;;;5022854;28;20160;-85
2022/09/29 05:17:25;;;;;;;0.10;0.10;;;7.50;99.90;;;;;;5028378;28;20416;-84
2022/09/29 05:19:52;;;;;;;0.10;0.10;;;;;;;;;;5024899;28;20057;-84
2022/09/29 05:22:23;;;;;;;0.00;0.00;;;7.50;99.90;;;;;;5021230;28;20034;-84
2022/09/29 05:24:51;;;;;;;0.10;0.10;;;7.60;99.90;;;;;;5019358;28;20053;-84
2022/09/29 05:27:18;;;;;;;0.10;0.10;;;7.50;99.90;;;;;;5021427;28;20041;-84
2022/09/29 05:29:45;;;;;;;0.10;0.10;;;7.50;99.90;;;;;;4999474;28;20081;-84
2022/09/29 05:32:12;;;;;;;0.10;0.10;;;7.40;99.90;;;;;;5008078;28;20060;-85
2022/09/29 05:34:39;;;;;;;0.10;0.10;;;7.40;99.90;;;;;;5024734;28;20413;-84
2022/09/29 05:37:06;;;;;;;0.10;0.10;;;7.40;99.90;;;;;;5021451;28;20485;-84
2022/09/29 05:39:33;;;;;;;0.10;0.10;;;7.50;99.90;;;;;;5019894;28;20042;-85
2022/09/29 05:42:01;;;;;;;0.10;0.10;;;7.50;99.90;;;;;;5028055;28;20038;-84
2022/09/29 05:44:28;;;;;;;0.10;0.10;;;7.50;99.90;;;;;;5013538;28;20042;-84
2022/09/29 05:46:55;;;;;;;0.10;0.10;;;;;;;;;;5025514;28;20054;-83
2022/09/29 05:49:22;;;;;;;0.10;0.10;;;7.60;99.90;;;;;;5020759;28;20061;-83
2022/09/29 05:51:49;;;;;;;0.10;0.10;;;7.70;99.90;;;;;;5025983;28;20052;-84
2022/09/29 05:54:16;;;;;;;0.10;0.10;;;;;;;;;;5015966;28;20045;-84
2022/09/29 05:56:43;;;;;;;0.10;0.10;;;7.60;99.90;;;;;;5029514;28;20497;-84
2022/09/29 05:59:12;;;;;;;0.10;0.10;;;7.60;99.90;;;;;;5022724;28;20092;-84
2022/09/29 06:01:39;;;;;;;0.10;0.10;;;7.70;99.90;;;;;;5023992;28;20044;-84
2022/09/29 06:04:06;;;;;;;0.10;0.10;;;7.70;99.90;;;;;;5029720;28;20071;-84
2022/09/29 06:06:35;;;;;;;0.10;0.10;;;;;;;;;;5015703;28;20034;-83
2022/09/29 06:09:02;;;;;;;0.10;0.10;;;;;;;;;;5028910;28;20040;-84
2022/09/29 06:11:30;;;;;;;0.10;0.10;;;7.70;99.90;;;;;;5021752;28;20084;-84
2022/09/29 06:13:58;;;;;;;0.10;0.10;;;7.70;99.90;;;;;;5018828;28;20049;-84
2022/09/29 06:16:28;;;;;;;0.10;0.10;;;7.70;99.90;;;;;;5011947;28;20052;-85
2022/09/29 06:18:55;;;;;;;;;;;7.70;99.90;;;;;;5016300;28;20060;-83
2022/09/29 06:21:24;;;;;;;0.10;0.10;;;7.70;99.90;;;;;;5007462;28;19921;-84
2022/09/29 06:23:52;;;;;;;0.10;0.10;;;7.60;99.90;;;;;;5009190;28;20047;-84
2022/09/29 06:26:20;;;;;;;0.10;0.10;;;7.60;99.90;;;;;;5009133;28;20482;-84
2022/09/29 06:28:50;;;;;;;0.10;0.10;;;7.60;99.90;;;;;;5040015;28;20049;-84
2022/09/29 06:31:19;;;;;;;0.10;0.10;;;7.60;99.90;;;;;;5018466;28;20034;-83
2022/09/29 06:33:47;;;;;;;0.10;0.10;;;7.70;99.90;;;;;;5024885;28;20045;-84
2022/09/29 06:39:04;;;;;;;0.10;0.10;;;7.60;99.90;;;;;;5023542;28;20037;-85
2022/09/29 06:41:33;;;;;;;0.10;0.10;;;;;;;;;;5023881;28;20045;-84
2022/09/29 06:44:00;;;;;;;0.05;0.05;;;7.60;99.90;;;;;;5009121;28;20037;-84
2022/09/29 06:46:27;;;;;;;0.10;0.10;;;7.50;99.90;;;;;;5013860;28;20039;-84
2022/09/29 06:48:56;;;;;;;0.10;0.10;;;8.00;99.90;;;;;;5011424;28;20045;-83
2022/09/29 06:51:24;;;;;;;0.10;0.10;;;7.50;99.90;;;;;;5026520;28;20040;-84
2022/09/29 06:54:06;;;;;;;0.10;0.10;;;7.60;99.90;;;;;;5029020;28;20045;-84
2022/09/29 06:56:38;;;;;;;0.10;0.10;;;;;;;;;;5025552;28;20503;-84
2022/09/29 06:59:05;;;;;;;0.10;0.10;;;7.70;99.90;;;;;;5009187;28;20072;-84
2022/09/29 07:01:32;;;;;;;0.00;0.00;;;7.70;99.90;;;;;;5022485;28;20041;-84
2022/09/29 07:04:01;;;;;;;0.10;0.10;;;7.70;99.90;;;;;;5025218;28;20041;-84
2022/09/29 07:06:29;;;;;;;0.10;0.10;;;7.70;99.90;;;;;;5012626;28;20038;-84
2022/09/29 07:08:57;;;;;;;0.10;0.10;;;7.80;99.90;;;;;;5021595;28;20049;-84
2022/09/29 07:11:25;;;;;;;0.10;0.10;;;7.80;99.90;;;;;;5009005;28;20133;-84
2022/09/29 07:13:52;;;;;;;0.00;0.00;;;8.20;99.90;;;;;;5020884;28;20493;-85
2022/09/29 07:16:22;;;;;;;0.10;0.10;;;7.90;99.90;;;;;;5004882;28;20049;-84
2022/09/29 07:18:50;;;;;;;0.10;0.10;;;8.00;99.90;;;;;;5010728;28;20053;-84
2022/09/29 07:21:20;;;;;;;0.10;0.10;;;8.10;99.90;;;;;;5025323;28;20030;-85
2022/09/29 07:23:47;;;;;;;0.10;0.10;;;8.10;99.90;;;;;;5006354;28;20073;-84
2022/09/29 07:26:15;;;;;;;0.10;0.10;;;8.20;99.90;;;;;;5027293;28;20053;-84
2022/09/29 07:28:42;;;;;;;0.10;0.10;;;8.20;99.90;;;;;;5008791;28;20072;-83
2022/09/29 07:31:12;;;;;;;0.10;0.10;;;8.30;99.90;;;;;;5020320;28;20048;-84
2022/09/29 07:33:41;;;;;;;0.10;0.10;;;8.30;99.90;;;;;;5025081;28;20038;-84
2022/09/29 07:36:08;;;;;;;0.10;0.10;;;8.40;99.90;;;;;;5006901;28;20087;-84
2022/09/29 07:38:36;;;;;;;0.10;0.10;;;8.50;99.90;;;;;;5012194;28;20082;-85
2022/09/29 07:41:08;;;;;;;0.10;0.10;;;8.50;99.90;;;;;;5008363;28;20462;-84
2022/09/29 07:43:35;;;;;;;0.10;0.10;;;8.40;99.90;;;;;;5009194;28;20053;-84
2022/09/29 07:46:03;;;;;;;0.10;0.10;;;8.40;99.90;;;;;;5007998;28;20056;-85
2022/09/29 07:48:31;;;;;;;0.10;0.10;;;8.40;99.90;;;;;;5023258;28;20493;-84
2022/09/29 07:51:03;;;;;;;0.10;0.10;;;8.50;99.90;;;;;;5021040;28;20056;-84
2022/09/29 07:53:30;;;;;;;0.10;0.10;;;8.60;99.90;;;;;;5028915;28;20498;-84
2022/09/29 07:56:03;;;;;;;0.10;0.10;;;8.60;99.90;;;;;;5024664;28;20420;-84
2022/09/29 07:58:31;;;;;;;0.10;0.10;;;8.60;99.90;;;;;;5028930;28;20041;-84
2022/09/29 08:00:58;;;;;;;0.10;0.10;;;8.70;99.90;;;;;;5023137;28;20033;-84
2022/09/29 08:03:25;;;;;;;0.10;0.10;;;8.70;99.90;;;;;;5008949;28;20048;-84
2022/09/29 08:05:52;;;;;;;0.10;0.10;;;8.80;99.90;;;;;;5028469;28;20045;-84
2022/09/29 08:08:19;;;;;;;0.10;0.10;;;8.80;99.90;;;;;;5023937;28;20417;-84
2022/09/29 08:10:46;;;;;;;0.00;0.00;;;;;;;;;;5007598;28;20088;-84
2022/09/29 08:13:20;;;;;;;0.10;0.10;;;8.90;99.90;;;;;;5020973;28;20477;-84
2022/09/29 08:15:47;;;;;;;0.10;0.10;;;;;;;;;;5004834;28;20053;-85
2022/09/29 08:18:14;;;;;;;0.10;0.10;;;9.00;99.90;;;;;;5009017;28;20049;-84
2022/09/29 08:20:41;;;;;;;0.10;0.10;;;9.10;99.90;;;;;;5024660;28;20045;-84
2022/09/29 08:23:08;;;;;;;0.10;0.10;;;;;;;;;;5006994;28;20064;-84
2022/09/29 08:25:35;;;;;;;0.10;0.10;;;9.20;99.90;;;;;;5021779;28;20075;-84
2022/09/29 08:28:02;;;;;;;0.10;0.10;;;9.30;99.90;;;;;;5025136;28;20075;-83
2022/09/29 08:30:31;;;;;;;0.10;0.10;;;9.40;99.90;;;;;;5004454;28;20045;-84
2022/09/29 08:32:57;;;;;;;0.10;0.10;;;9.50;99.90;;;;;;5007696;28;20048;-85
2022/09/29 08:35:24;;;;;;;0.08;0.08;;;9.60;99.90;;;;;;5010903;28;20045;-85
2022/09/29 08:37:53;;;;;;;0.00;0.00;;;9.60;99.90;;;;;;5011591;28;20041;-84
2022/09/29 08:40:20;;;;;;;0.10;0.10;;;9.70;99.90;;;;;;5002201;28;20060;-85
2022/09/29 08:42:57;;;;;;;0.10;0.10;;;9.80;99.90;;;;;;5015940;28;20444;-82
2022/09/29 08:45:28;;;;;;;0.10;0.10;;;9.80;99.90;;;;;;5026382;28;20412;-84
2022/09/29 08:48:04;;;;;;;0.10;0.10;;;9.80;99.90;;;;;;5013106;28;20044;-86
2022/09/29 08:50:48;;;;;;;0.10;0.10;;;9.90;99.90;;;;;;5007636;28;20429;-85
2022/09/29 08:53:20;;;;;;;0.00;0.00;;;10.00;99.90;;;;;;5012497;28;20061;-85
2022/09/29 08:55:57;;;;;;;0.10;0.10;;;10.00;99.90;;;;;;5025052;28;20049;-85
2022/09/29 08:58:24;;;;;;;0.00;0.00;;;10.10;99.90;;;;;;5030777;28;20088;-85
2022/09/29 09:00:59;;;;;;;0.10;0.10;;;10.10;99.90;;;;;;5026777;28;20041;-85
2022/09/29 09:04:15;;;;;;;0.10;0.10;;;10.10;99.90;;;;;;5020829;28;20037;-85
2022/09/29 09:06:57;;;;;;;0.05;0.05;;;10.10;99.90;;;;;;5021511;28;20052;-85
2022/09/29 09:09:37;;;;;;;0.00;0.00;;;10.20;99.90;;;;;;5008562;28;20038;-85
2022/09/29 09:12:21;;;;;;;0.10;0.10;;;10.20;99.90;;;;;;5027514;28;20073;-85
2022/09/29 09:15:04;;;;;;;0.10;0.10;;;10.30;99.90;;;;;;5003477;28;20041;-85
2022/09/29 09:17:48;;;;;;;0.00;0.00;;;10.40;99.90;;;;;;5031763;28;20477;-85
2022/09/29 09:20:26;;;;;;;0.10;0.10;;;10.50;99.90;;;;;;5032063;28;20037;-84
2022/09/29 09:22:56;;;;;;;0.00;0.00;;;10.50;99.90;;;;;;5024048;28;20046;-84
2022/09/29 09:25:28;;;;;;;0.10;0.10;;;10.60;99.90;;;;;;5009089;28;20080;-85
2022/09/29 09:28:02;;;;;;;0.05;0.05;;;10.70;99.90;;;;;;5028509;28;20041;-85
2022/09/29 09:30:37;;;;;;;0.00;0.00;;;10.80;99.90;;;;;;5026287;28;20048;-84
2022/09/29 09:33:15;;;;;;;0.05;0.00;;;10.80;99.90;;;;;;5019789;28;20030;-85
2022/09/29 09:36:01;;;;;;;0.00;0.00;;;10.90;99.90;;;;;;5029092;28;20468;-85
2022/09/29 09:38:45;;;;;;;0.00;0.00;;;11.00;99.90;;;;;;5009945;28;20044;-86
2022/09/29 09:41:14;;;;;;;0.00;0.00;;;11.00;99.90;;;;;;5009744;28;20041;-86
2022/09/29 09:43:44;;;;;;;0.00;0.00;;;11.00;99.90;;;;;;5024256;28;20551;-85
2022/09/29 09:46:18;;;;;;;0.03;0.03;;;11.00;99.90;;;;;;5027257;28;20044;-86
2022/09/29 09:48:55;;;;;;;0.00;0.00;;;11.30;99.90;;;;;;5009984;28;20499;-85
2022/09/29 09:51:37;;;;;;;0.00;0.00;;;10.90;99.90;;;;;;5087368;23;20052;-82
2022/09/29 09:54:10;;;;;;;0.00;0.00;;;11.00;99.90;;;;;;5085924;28;20054;-82
2022/09/29 09:56:52;;;;;;;0.00;0.00;;;11.00;99.90;;;;;;5083657;28;20049;-82
2022/09/29 09:59:30;;;;;;;0.00;0.00;;;11.00;99.90;;;;;;5081385;28;20495;-82
2022/09/29 10:01:57;;;;;;;0.00;0.00;;;11.00;99.90;;;;;;5066296;28;20046;-82
2022/09/29 10:04:24;;;;;;;0.00;0.00;;;11.00;99.90;;;;;;5058745;28;20040;-82
2022/09/29 10:06:54;;;;;;;0.10;0.10;;;11.00;99.90;;;;;;5062703;28;20045;-81
2022/09/29 10:09:21;;;;;;;0.00;0.00;;;11.00;99.90;;;;;;5052119;28;20033;-83
2022/09/29 10:11:49;;;;;;;0.10;0.10;;;11.10;99.90;;;;;;5047949;28;20468;-81
2022/09/29 10:14:24;;;;;;;0.00;0.00;;;11.30;99.90;;;;;;5050218;28;20511;-81
2022/09/29 10:16:56;;;;;;;0.00;0.00;;;11.40;99.90;;;;;;5064076;28;20108;-84
2022/09/29 10:19:54;;;;;;;0.00;0.00;;;11.60;99.90;;;;;;5053580;28;20049;-81
2022/09/29 10:22:22;;;;;;;0.00;0.00;;;11.60;99.90;;;;;;5060854;28;20036;-82
2022/09/29 10:24:55;;;;;;;0.00;0.00;;;11.60;99.90;;;;;;5054587;28;20072;-81
2022/09/29 10:27:25;;;;;;;0.00;0.00;;;11.70;99.90;;;;;;5039791;28;20059;-82
2022/09/29 10:29:53;;;;;;;0.00;0.00;;;11.80;99.90;;;;;;5041574;28;20159;-82
2022/09/29 10:32:35;;;;;;;0.08;0.08;;;11.90;99.90;;;;;;5053787;28;20461;-81
2022/09/29 10:35:08;;;;;;;0.00;0.00;;;12.00;99.90;;;;;;5048714;28;20064;-84
2022/09/29 10:37:37;;;;;;;0.00;0.00;;;12.20;99.90;;;;;;5042614;28;20122;-77
2022/09/29 10:40:16;;;;;;;0.00;0.00;;;12.30;99.90;;;;;;5051392;28;20033;-83
2022/09/29 10:42:45;;;;;;;0.00;0.00;;;12.50;99.90;;;;;;5049474;28;20406;-82
2022/09/29 10:45:15;;;;;;;0.00;0.00;;;12.70;99.90;;;;;;5049647;28;20527;-81
2022/09/29 10:47:45;;;;;;;0.00;0.00;;;12.70;99.90;;;;;;5052748;28;20041;-80
2022/09/29 10:50:17;;;;;;;0.00;0.00;;;12.60;99.90;;;;;;5047366;28;20049;-81
2022/09/29 10:52:51;;;;;;;0.00;0.00;;;12.60;99.90;;;;;;5052726;28;20518;-80
2022/09/29 10:55:21;;;;;;;0.00;0.00;;;12.70;99.90;;;;;;5045799;28;20416;-81
2022/09/29 10:57:50;;;;;;;0.00;0.00;;;12.80;99.90;;;;;;5044989;28;20064;-81
2022/09/29 11:00:28;;;;;;;0.00;0.00;;;13.10;99.90;;;;;;5044958;28;20048;-82
2022/09/29 11:03:03;;;;;;;0.00;0.00;;;13.30;99.90;;;;;;5047908;28;20059;-83
2022/09/29 11:05:30;;;;;;;0.00;0.00;;;;;;;;;;5052924;28;20042;-83
2022/09/29 11:07:59;;;;;;;0.08;0.08;;;13.30;99.90;;;;;;5066679;28;20048;-83
2022/09/29 11:10:27;;;;;;;0.00;0.00;;;13.20;99.90;;;;;;5047804;28;20055;-81
2022/09/29 11:12:58;;;;;;;0.00;0.00;;;13.20;99.90;;;;;;5042862;28;20076;-83
2022/09/29 11:15:27;;;;;;;0.10;0.10;;;13.00;99.90;;;;;;5049446;28;20080;-83
2022/09/29 11:17:55;;;;;;;0.00;0.00;;;12.80;99.90;;;;;;5052974;28;20042;-80
2022/09/29 11:20:29;;;;;;;0.10;0.10;;;12.80;99.90;;;;;;5045832;28;20088;-81
2022/09/29 11:23:08;;;;;;;0.03;0.03;;;12.70;99.90;;;;;;5060662;28;20051;-80
2022/09/29 11:25:55;;;;;;;0.00;0.00;;;12.80;99.90;;;;;;5061246;28;20075;-81
2022/09/29 11:28:49;;;;;;;0.00;0.00;;;13.10;99.90;;;;;;5043880;28;20061;-83
2022/09/29 11:31:31;;;;;;;0.00;0.00;;;13.10;99.90;;;;;;5030464;28;20061;-81
2022/09/29 11:34:14;;;;;;;0.00;0.00;;;13.30;99.90;;;;;;5046045;28;20033;-81
2022/09/29 11:36:49;;;;;;;0.00;0.00;;;13.30;99.90;;;;;;5045745;28;20076;-81
2022/09/29 11:39:28;;;;;;;0.00;0.00;;;13.30;99.90;;;;;;5051402;28;20040;-81
2022/09/29 11:42:08;;;;;;;0.00;0.00;;;13.30;99.90;;;;;;5074061;28;20040;-84
2022/09/29 11:45:07;;;;;;;0.00;0.00;;;13.50;99.90;;;;;;5057047;28;20055;-83
2022/09/29 11:48:03;;;;;;;0.00;0.00;;;13.90;99.90;;;;;;5059327;28;20053;-83
2022/09/29 11:50:39;;;;;;;0.00;0.00;;;13.60;99.90;;;;;;5050557;28;20087;-84
2022/09/29 11:53:17;;;;;;;0.00;0.00;;;13.50;99.90;;;;;;5045588;28;20116;-79
2022/09/29 11:56:02;;;;;;;0.00;0.00;;;13.40;99.90;;;;;;5056455;28;20048;-84
2022/09/29 11:58:45;;;;;;;0.00;0.00;;;13.50;99.90;;;;;;5057947;28;20043;-84
2022/09/29 12:01:25;;;;;;;0.00;0.00;;;13.50;99.90;;;;;;5045275;28;20050;-84
2022/09/29 12:04:02;;;;;;;0.00;0.00;;;13.60;99.90;;;;;;5040199;28;20073;-82
2022/09/29 12:06:53;;;;;;;0.00;0.00;;;13.80;99.90;;;;;;5048297;28;20045;-81
2022/09/29 12:09:39;;;;;;;0.00;0.00;;;14.10;99.90;;;;;;5044112;28;20322;-81
2022/09/29 12:12:12;;;;;;;0.00;0.00;;;14.20;99.90;;;;;;5043164;28;20056;-81
2022/09/29 12:15:18;;;;;;;0.00;0.00;;;14.30;99.90;;;;;;5046152;28;20045;-80
2022/09/29 12:17:49;;;;;;;0.00;0.00;;;14.50;99.90;;;;;;5059820;28;20044;-84
2022/09/29 12:20:21;;;;;;;0.00;0.00;;;14.60;99.90;;;;;;5054329;28;20080;-84
2022/09/29 12:22:51;;;;;;;0.00;0.00;;;14.70;99.90;;;;;;5045208;28;20045;-84
2022/09/29 12:25:21;;;;;;;;;;;14.40;99.90;;;;;;5056723;28;20205;-82
2022/09/29 12:27:52;;;;;;;0.00;0.00;;;14.20;99.90;;;;;;5064779;28;20299;-82
2022/09/29 12:30:23;;;;;;;0.00;0.00;;;14.20;99.90;;;;;;5053172;28;20127;-83
2022/09/29 12:32:57;;;;;;;0.00;0.00;;;14.00;99.90;;;;;;5062077;28;20040;-83
2022/09/29 12:35:33;;;;;;;0.00;0.00;;;14.20;99.90;;;;;;5060989;28;20041;-82
2022/09/29 12:38:14;;;;;;;0.00;0.00;;;14.20;99.90;;;;;;5060344;28;20025;-82
2022/09/29 12:40:47;;;;;;;0.00;0.00;;;14.30;99.90;;;;;;5060485;28;20076;-84
2022/09/29 12:43:24;;;;;;;0.00;0.00;;;14.40;99.90;;;;;;5062078;28;20064;-83
2022/09/29 12:46:01;;;;;;;0.00;0.00;;;14.50;99.90;;;;;;5045971;28;20037;-86
2022/09/29 12:48:39;;;;;;;0.00;0.00;;;14.60;99.90;;;;;;5046242;28;20063;-84
2022/09/29 12:51:12;;;;;;;0.00;0.00;;;14.70;99.90;;;;;;5043904;28;20048;-83
2022/09/29 12:53:59;;;;;;;0.00;0.00;;;14.70;99.90;;;;;;5035504;28;20069;-80
2022/09/29 12:56:31;;;;;;;0.00;0.00;;;14.70;99.90;;;;;;5043312;28;20045;-83
2022/09/29 12:59:05;;;;;;;0.00;0.00;;;14.70;99.90;;;;;;5044266;28;20458;-84
2022/09/29 13:01:35;;;;;;;0.00;0.00;;;14.70;99.90;;;;;;5057938;28;20076;-83
2022/09/29 13:04:36;;;;;;;0.00;0.00;;;14.50;99.90;;;;;;5039607;28;20205;-84
2022/09/29 13:07:38;;;;;;;0.00;0.00;;;14.50;99.90;;;;;;5043126;28;20049;-81
2022/09/29 13:10:47;;;;;;;0.00;0.00;;;14.60;99.90;;;;;;5046854;28;20057;-84
2022/09/29 13:13:56;;;;;;;0.00;0.00;;;14.80;99.90;;;;;;5008135;28;20041;-85
2022/09/29 13:16:41;;;;;;;0.00;0.00;;;14.90;99.90;;;;;;5000676;28;20516;-84
2022/09/29 13:19:33;;;;;;;0.00;0.00;;;15.10;98.10;;;;;;5052905;28;20139;-83
2022/09/29 13:22:45;;;;;;;0.00;0.00;;;15.00;99.00;;;;;;5060982;28;20516;-84
2022/09/29 13:25:21;;;;;;;0.00;0.00;;;15.10;99.90;;;;;;5059082;28;20485;-84
2022/09/29 13:27:49;;;;;;;0.00;0.00;;;15.40;99.90;;;;;;5063975;28;20032;-83
2022/09/29 13:30:18;;;;;;;0.00;0.00;;;15.20;98.50;;;;;;5059186;28;20076;-83
2022/09/29 13:32:50;;;;;;;0.00;0.00;;;15.10;98.10;;;;;;5062876;28;20057;-86
2022/09/29 13:35:20;;;;;;;0.00;0.00;;;15.10;99.00;;;;;;5072052;28;20111;-84